createdAt,value
2018-07-16T00:04:46.457Z,5.80
2018-07-16T00:09:39.101Z,6.23
2018-07-16T00:14:31.738Z,6.30
2018-07-16T00:19:24.230Z,6.63
2018-07-16T00:24:16.787Z,6.47
2018-07-16T00:29:09.429Z,6.67
2018-07-16T00:34:02.037Z,6.30
2018-07-16T00:38:54.593Z,6.43
2018-07-16T00:43:47.214Z,6.80
2018-07-16T00:48:39.832Z,7.30
2018-07-16T00:53:32.458Z,7.23
2018-07-16T00:58:25.008Z,7.07
2018-07-16T01:03:17.684Z,8.07
2018-07-16T01:08:10.242Z,7.47
2018-07-16T01:13:02.873Z,7.73
2018-07-16T01:17:55.503Z,8.03
2018-07-16T01:22:48.122Z,7.87
2018-07-16T01:27:40.907Z,8.27
2018-07-16T01:32:33.523Z,7.83
2018-07-16T01:37:26.152Z,8.30
2018-07-16T01:42:18.734Z,8.80
2018-07-16T01:47:11.500Z,8.67
2018-07-16T01:52:04.086Z,9.80
2018-07-16T01:56:56.723Z,8.50
2018-07-16T02:01:49.309Z,9.20
2018-07-16T02:06:41.864Z,9.27
2018-07-16T02:11:34.458Z,8.67
2018-07-16T02:16:26.974Z,8.80
2018-07-16T02:21:19.549Z,9.27
2018-07-16T02:26:12.098Z,8.77
2018-07-16T02:31:04.698Z,9.83
2018-07-16T02:35:57.313Z,9.67
2018-07-16T02:40:49.923Z,9.67
2018-07-16T02:45:42.499Z,9.30
2018-07-16T02:50:35.038Z,9.33
2018-07-16T02:55:27.636Z,10.93
2018-07-16T03:00:20.218Z,9.57
2018-07-16T03:05:17.996Z,9.63
2018-07-16T03:10:10.760Z,10.50
2018-07-16T03:15:04.027Z,10.63
2018-07-16T03:19:56.631Z,10.20
2018-07-16T03:24:49.288Z,9.77
2018-07-16T03:29:41.899Z,10.27
2018-07-16T03:34:34.711Z,11.40
2018-07-16T03:39:27.356Z,11.57
2018-07-16T03:44:20.063Z,11.67
2018-07-16T03:49:12.629Z,11.50
2018-07-16T03:54:05.299Z,10.53
2018-07-16T03:58:57.935Z,11.23
2018-07-16T04:03:50.567Z,11.20
2018-07-16T04:08:43.287Z,10.83
2018-07-16T04:13:35.844Z,11.63
2018-07-16T04:18:28.524Z,12.33
2018-07-16T04:23:21.102Z,12.57
2018-07-16T04:28:13.692Z,13.27
2018-07-16T04:33:06.438Z,13.27
2018-07-16T04:37:59.062Z,14.60
2018-07-16T04:42:52.007Z,14.43
2018-07-16T04:47:44.587Z,15.43
2018-07-16T04:52:37.182Z,17.20
2018-07-16T04:57:29.738Z,17.50
2018-07-16T05:02:22.287Z,17.53
2018-07-16T05:07:14.985Z,17.33
2018-07-16T05:12:07.691Z,17.87
2018-07-16T05:17:00.324Z,17.27
2018-07-16T05:21:52.911Z,16.17
2018-07-16T05:26:45.575Z,15.83
2018-07-16T05:31:38.206Z,12.57
2018-07-16T05:36:30.732Z,11.80
2018-07-16T05:41:23.297Z,10.10
2018-07-16T05:46:16.238Z,10.93
2018-07-16T05:51:08.803Z,9.67
2018-07-16T05:56:01.380Z,9.80
2018-07-16T06:00:53.994Z,9.17
2018-07-16T06:05:46.611Z,9.20
2018-07-16T06:10:39.191Z,8.27
2018-07-16T06:15:31.843Z,9.23
2018-07-16T06:20:24.442Z,6.87
2018-07-16T06:25:17.111Z,7.60
2018-07-16T06:30:09.906Z,7.00
2018-07-16T06:35:02.529Z,8.03
2018-07-16T06:39:55.177Z,7.97
2018-07-16T06:44:47.750Z,8.40
2018-07-16T06:49:40.415Z,7.80
2018-07-16T06:54:33.027Z,7.53
2018-07-16T06:59:25.665Z,8.00
2018-07-16T07:04:18.196Z,6.73
2018-07-16T07:09:10.810Z,7.20
2018-07-16T07:14:03.406Z,6.70
2018-07-16T07:18:56.251Z,6.20
2018-07-16T07:23:49.270Z,6.33
2018-07-16T07:28:41.901Z,6.53
2018-07-16T07:33:34.602Z,6.87
2018-07-16T07:38:27.145Z,6.73
2018-07-16T07:43:19.734Z,6.10
2018-07-16T07:48:12.407Z,5.70
2018-07-16T07:53:05.243Z,5.70
2018-07-16T07:57:57.934Z,5.50
2018-07-16T08:02:50.548Z,5.47
2018-07-16T08:07:43.129Z,6.77
2018-07-16T08:12:35.742Z,5.20
2018-07-16T08:17:28.371Z,5.23
2018-07-16T08:22:21.165Z,5.37
2018-07-16T08:27:13.940Z,5.03
2018-07-16T08:32:07.484Z,5.23
2018-07-16T08:37:00.103Z,5.13
2018-07-16T08:41:52.662Z,4.87
2018-07-16T08:46:45.287Z,5.07
2018-07-16T08:51:37.938Z,5.13
2018-07-16T08:56:30.511Z,4.97
2018-07-16T09:01:23.143Z,5.63
2018-07-16T09:06:15.754Z,5.83
2018-07-16T09:11:08.446Z,5.30
2018-07-16T09:16:01.104Z,5.10
2018-07-16T09:20:53.678Z,4.47
2018-07-16T09:25:46.260Z,4.30
2018-07-16T09:30:38.825Z,4.23
2018-07-16T09:35:31.431Z,4.33
2018-07-16T09:40:24.061Z,4.83
2018-07-16T09:45:16.761Z,4.83
2018-07-16T09:50:09.386Z,4.50
2018-07-16T09:55:01.950Z,5.23
2018-07-16T09:59:54.535Z,5.07
2018-07-16T10:04:47.223Z,5.17
2018-07-16T10:09:39.854Z,4.40
2018-07-16T10:14:33.499Z,3.93
2018-07-16T10:19:26.133Z,4.63
2018-07-16T10:24:18.725Z,4.40
2018-07-16T10:29:11.323Z,4.43
2018-07-16T10:34:03.866Z,4.50
2018-07-16T10:38:56.522Z,4.13
2018-07-16T10:43:49.415Z,4.13
2018-07-16T10:48:41.998Z,3.97
2018-07-16T10:53:34.570Z,4.17
2018-07-16T10:58:27.153Z,3.50
2018-07-16T11:03:19.760Z,3.80
2018-07-16T11:08:12.335Z,3.90
2018-07-16T11:13:04.943Z,4.23
2018-07-16T11:17:57.636Z,3.70
2018-07-16T11:22:50.247Z,4.43
2018-07-16T11:27:42.804Z,4.13
2018-07-16T11:32:35.437Z,3.60
2018-07-16T11:37:28.064Z,3.80
2018-07-16T11:42:20.855Z,3.63
2018-07-16T11:47:13.562Z,3.50
2018-07-16T11:52:06.243Z,3.60
2018-07-16T11:56:59.047Z,4.00
2018-07-16T12:01:51.789Z,4.10
2018-07-16T12:06:44.334Z,3.50
2018-07-16T12:11:36.920Z,3.57
2018-07-16T12:16:29.653Z,3.50
2018-07-16T12:21:22.327Z,3.50
2018-07-16T12:26:14.918Z,3.80
2018-07-16T12:31:07.516Z,3.60
2018-07-16T12:36:00.124Z,3.70
2018-07-16T12:40:52.684Z,3.60
2018-07-16T12:45:45.233Z,3.70
2018-07-16T12:50:38.159Z,3.43
2018-07-16T12:55:30.910Z,3.10
2018-07-16T13:00:23.570Z,4.10
2018-07-16T13:05:16.227Z,3.00
2018-07-16T13:10:08.891Z,3.40
2018-07-16T13:15:01.732Z,3.83
2018-07-16T13:19:54.371Z,3.70
2018-07-16T13:24:47.926Z,3.13
2018-07-16T13:29:40.514Z,3.50
2018-07-16T13:34:33.113Z,3.50
2018-07-16T13:39:25.735Z,2.90
2018-07-16T13:44:18.324Z,3.10
2018-07-16T13:49:10.915Z,3.10
2018-07-16T13:54:03.462Z,3.50
2018-07-16T13:58:56.382Z,3.70
2018-07-16T14:03:48.952Z,3.97
2018-07-16T14:08:41.641Z,4.00
2018-07-16T14:13:34.284Z,3.67
2018-07-16T14:18:26.941Z,3.47
2018-07-16T14:23:19.664Z,4.00
2018-07-16T14:28:12.166Z,4.00
2018-07-16T15:50:37.612Z,4.13
2018-07-16T16:57:05.393Z,4.00
2018-07-16T17:01:58.095Z,4.70
2018-07-16T17:06:50.901Z,3.90
2018-07-16T17:11:43.532Z,3.63
2018-07-16T17:16:36.192Z,3.33
2018-07-16T17:21:28.775Z,3.70
2018-07-16T17:26:21.417Z,3.90
2018-07-16T17:31:14.099Z,4.07
2018-07-16T17:36:06.669Z,3.87
2018-07-16T17:40:59.424Z,4.17
2018-07-16T17:45:52.432Z,3.77
2018-07-16T17:50:44.979Z,4.40
2018-07-16T17:55:37.567Z,4.10
2018-07-16T18:00:30.185Z,3.90
2018-07-16T18:05:22.850Z,3.90
2018-07-16T18:10:15.414Z,4.07
2018-07-16T18:15:08.023Z,4.00
2018-07-16T18:20:00.570Z,4.30
2018-07-16T18:24:53.207Z,3.77
2018-07-16T18:29:45.938Z,4.50
2018-07-16T18:34:38.514Z,4.07
2018-07-16T18:39:31.143Z,4.97
2018-07-16T18:44:23.757Z,4.40
2018-07-16T18:49:16.378Z,4.80
2018-07-16T18:54:08.890Z,4.43
2018-07-16T18:59:01.449Z,4.87
2018-07-16T19:03:53.994Z,5.03
2018-07-16T19:08:46.538Z,4.90
2018-07-16T19:13:39.339Z,5.03
2018-07-16T19:18:31.922Z,5.40
2018-07-16T19:23:24.474Z,4.90
2018-07-16T19:28:17.283Z,5.50
2018-07-16T19:33:09.887Z,5.77
2018-07-16T19:38:02.480Z,4.73
2018-07-16T19:42:55.158Z,4.57
2018-07-16T19:47:47.780Z,3.93
2018-07-16T19:52:40.431Z,4.40
2018-07-16T19:57:33.270Z,4.60
2018-07-16T20:02:25.779Z,4.00
2018-07-16T20:07:18.294Z,4.40
2018-07-16T20:12:33.574Z,4.33
2018-07-16T20:17:26.162Z,3.87
2018-07-16T20:22:18.737Z,4.00
2018-07-16T20:27:11.344Z,4.30
2018-07-16T20:32:04.033Z,3.93
2018-07-16T20:36:56.721Z,4.00
2018-07-16T20:41:49.387Z,4.30
2018-07-16T20:46:41.942Z,4.30
2018-07-16T20:51:34.540Z,5.10
2018-07-16T20:56:27.243Z,4.80
2018-07-16T21:01:19.736Z,5.37
2018-07-16T21:06:12.379Z,4.97
2018-07-16T21:11:05.451Z,5.03
2018-07-16T21:15:58.083Z,5.00
2018-07-16T21:20:50.589Z,4.70
2018-07-16T21:25:43.159Z,4.53
2018-07-16T21:30:35.769Z,4.93
2018-07-16T21:35:28.544Z,4.67
2018-07-16T21:40:21.173Z,5.20
2018-07-16T21:45:13.851Z,6.33
2018-07-16T21:50:06.611Z,5.60
2018-07-16T21:54:59.149Z,7.20
2018-07-16T21:59:51.682Z,6.43
2018-07-16T22:04:44.274Z,6.67
2018-07-16T22:09:36.904Z,6.70
2018-07-16T22:14:29.559Z,6.63
2018-07-16T22:19:22.186Z,6.30
2018-07-16T22:24:14.701Z,6.20
2018-07-16T22:29:07.287Z,7.03
2018-07-16T22:33:59.902Z,7.80
2018-07-16T22:38:52.431Z,7.33
2018-07-16T22:43:44.962Z,6.60
2018-07-16T22:48:37.510Z,6.13
2018-07-16T22:53:30.116Z,6.40
2018-07-16T22:58:22.698Z,6.60
2018-07-16T23:03:15.282Z,6.17
2018-07-16T23:08:07.901Z,6.17
2018-07-16T23:13:00.747Z,6.57
2018-07-16T23:17:53.330Z,5.87
2018-07-16T23:22:51.226Z,6.57
2018-07-16T23:27:43.879Z,6.33
2018-07-16T23:32:36.443Z,6.43
2018-07-16T23:37:29.099Z,6.40
2018-07-16T23:42:21.641Z,6.00
2018-07-16T23:47:14.267Z,6.20
2018-07-16T23:52:06.912Z,6.63
2018-07-16T23:56:59.469Z,6.63
